createdAt,value
2017-12-25T00:01:50.371Z,72.50
2017-12-25T00:04:17.851Z,72.46
2017-12-25T00:06:46.317Z,72.49
2017-12-25T00:09:13.776Z,72.26
2017-12-25T00:11:41.243Z,72.42
2017-12-25T00:14:08.687Z,72.39
2017-12-25T00:16:36.140Z,72.88
2017-12-25T00:19:03.584Z,72.57
2017-12-25T00:21:31.039Z,72.70
2017-12-25T00:23:58.503Z,72.84
2017-12-25T00:26:26.012Z,72.57
2017-12-25T00:28:53.470Z,72.29
2017-12-25T00:31:20.914Z,72.61
2017-12-25T00:33:48.415Z,72.59
2017-12-25T00:36:15.880Z,72.43
2017-12-25T00:38:43.351Z,72.23
2017-12-25T00:41:10.815Z,72.20
2017-12-25T00:43:38.278Z,72.78
2017-12-25T00:46:05.736Z,72.69
2017-12-25T00:48:33.217Z,72.11
2017-12-25T00:51:00.664Z,71.87
2017-12-25T00:53:28.129Z,71.85
2017-12-25T00:55:55.577Z,71.71
2017-12-25T00:58:23.114Z,72.01
2017-12-25T01:00:50.572Z,71.85
2017-12-25T01:03:18.027Z,71.83
2017-12-25T01:05:45.484Z,71.94
2017-12-25T01:08:12.934Z,72.41
2017-12-25T01:10:40.402Z,72.01
2017-12-25T01:13:07.862Z,72.09
2017-12-25T01:15:36.214Z,72.18
2017-12-25T01:18:03.671Z,72.04
2017-12-25T01:20:31.137Z,72.77
2017-12-25T01:22:58.595Z,72.41
2017-12-25T01:25:26.078Z,72.09
2017-12-25T01:27:53.583Z,71.92
2017-12-25T01:30:21.046Z,72.13
2017-12-25T01:32:48.635Z,72.03
2017-12-25T01:35:16.108Z,72.16
2017-12-25T01:37:43.555Z,72.06
2017-12-25T01:40:11.016Z,72.32
2017-12-25T01:42:38.476Z,72.36
2017-12-25T01:45:05.953Z,72.50
2017-12-25T01:47:33.414Z,72.69
2017-12-25T01:50:00.876Z,73.21
2017-12-25T01:52:28.354Z,72.58
2017-12-25T01:54:55.799Z,72.65
2017-12-25T01:57:27.858Z,73.16
2017-12-25T02:02:52.906Z,73.26
2017-12-25T02:05:35.734Z,73.13
2017-12-25T02:08:05.895Z,73.32
2017-12-25T02:10:33.437Z,73.70
2017-12-25T02:13:01.002Z,73.83
2017-12-25T02:15:28.506Z,73.61
2017-12-25T02:17:55.953Z,74.07
2017-12-25T02:20:23.405Z,74.75
2017-12-25T02:22:50.849Z,74.36
2017-12-25T02:25:18.307Z,75.35
2017-12-25T02:27:45.758Z,75.09
2017-12-25T02:30:13.237Z,75.30
2017-12-25T02:32:40.740Z,75.14
2017-12-25T02:35:08.303Z,75.59
2017-12-25T02:37:35.922Z,75.18
2017-12-25T02:40:03.932Z,75.89
2017-12-25T02:42:31.401Z,75.65
2017-12-25T02:44:58.872Z,75.36
2017-12-25T02:47:26.312Z,75.32
2017-12-25T02:49:53.771Z,74.91
2017-12-25T02:52:21.274Z,75.13
2017-12-25T02:54:48.826Z,74.96
2017-12-25T02:57:16.306Z,74.74
2017-12-25T02:59:43.761Z,74.34
2017-12-25T03:02:11.222Z,74.17
2017-12-25T03:04:38.672Z,74.03
2017-12-25T03:07:06.138Z,73.80
2017-12-25T03:09:33.599Z,73.68
2017-12-25T03:12:01.069Z,73.65
2017-12-25T03:14:28.551Z,73.71
2017-12-25T03:16:56.004Z,73.63
2017-12-25T03:19:24.756Z,73.44
2017-12-25T03:21:52.265Z,73.78
2017-12-25T03:24:19.707Z,73.53
2017-12-25T03:26:47.173Z,73.42
2017-12-25T03:29:14.714Z,73.33
2017-12-25T03:31:42.147Z,73.38
2017-12-25T03:34:09.604Z,73.56
2017-12-25T03:36:37.070Z,73.58
2017-12-25T03:39:05.295Z,73.49
2017-12-25T03:41:32.818Z,73.50
2017-12-25T03:44:00.296Z,73.22
2017-12-25T03:46:27.763Z,73.55
2017-12-25T03:48:55.216Z,73.60
2017-12-25T03:51:22.674Z,73.74
2017-12-25T03:53:50.170Z,73.89
2017-12-25T03:56:17.642Z,73.96
2017-12-25T03:58:45.085Z,74.02
2017-12-25T04:01:12.547Z,74.13
2017-12-25T04:03:40.037Z,74.28
2017-12-25T04:06:07.484Z,74.16
2017-12-25T04:08:34.947Z,74.15
2017-12-25T04:11:02.420Z,74.31
2017-12-25T04:13:29.880Z,74.28
2017-12-25T04:15:57.329Z,74.39
2017-12-25T04:18:24.792Z,74.33
2017-12-25T04:20:56.494Z,74.65
2017-12-25T04:23:23.972Z,74.52
2017-12-25T04:25:51.410Z,74.78
2017-12-25T04:28:18.873Z,74.83
2017-12-25T04:30:46.443Z,75.08
2017-12-25T04:33:13.890Z,75.18
2017-12-25T04:35:41.354Z,74.91
2017-12-25T04:38:08.806Z,74.95
2017-12-25T04:40:36.265Z,74.89
2017-12-25T04:43:03.729Z,74.88
2017-12-25T04:45:31.196Z,75.13
2017-12-25T04:47:58.719Z,75.27
2017-12-25T04:50:26.183Z,75.39
2017-12-25T04:52:53.651Z,75.31
2017-12-25T04:55:21.121Z,75.45
2017-12-25T04:57:48.682Z,75.19
2017-12-25T05:00:16.178Z,75.10
2017-12-25T05:02:43.639Z,75.43
2017-12-25T05:05:11.090Z,75.60
2017-12-25T05:07:38.588Z,75.70
2017-12-25T05:10:06.049Z,75.79
2017-12-25T05:12:33.625Z,75.76
2017-12-25T05:15:01.084Z,75.77
2017-12-25T05:17:28.561Z,75.63
2017-12-25T05:19:56.026Z,75.76
2017-12-25T05:22:23.492Z,75.88
2017-12-25T05:24:50.940Z,75.67
2017-12-25T05:27:18.412Z,75.60
2017-12-25T05:29:45.876Z,75.87
2017-12-25T05:32:13.318Z,75.94
2017-12-25T05:34:40.857Z,75.98
2017-12-25T05:37:08.279Z,75.52
2017-12-25T05:39:35.733Z,75.75
2017-12-25T05:42:03.204Z,75.71
2017-12-25T05:44:30.683Z,75.82
2017-12-25T05:46:58.138Z,75.63
2017-12-25T05:49:25.582Z,75.46
2017-12-25T05:51:53.040Z,75.69
2017-12-25T05:54:20.504Z,75.85
2017-12-25T05:56:47.964Z,76.12
2017-12-25T05:59:15.462Z,76.17
2017-12-25T06:01:42.923Z,76.11
2017-12-25T06:04:10.368Z,76.29
2017-12-25T06:06:37.834Z,76.09
2017-12-25T06:09:05.313Z,76.19
2017-12-25T06:11:32.767Z,75.92
2017-12-25T06:14:00.290Z,76.14
2017-12-25T06:16:27.761Z,76.10
2017-12-25T06:18:55.217Z,76.34
2017-12-25T06:21:22.658Z,76.33
2017-12-25T06:23:50.135Z,76.23
2017-12-25T06:26:17.568Z,76.58
2017-12-25T06:28:45.030Z,76.22
2017-12-25T06:31:12.489Z,76.26
2017-12-25T06:33:39.932Z,75.98
2017-12-25T06:36:07.409Z,76.16
2017-12-25T06:38:34.861Z,76.36
2017-12-25T06:41:02.354Z,75.97
2017-12-25T06:43:29.802Z,75.87
2017-12-25T06:45:57.293Z,76.00
2017-12-25T06:48:24.756Z,75.88
2017-12-25T06:50:52.230Z,75.87
2017-12-25T06:53:19.669Z,75.67
2017-12-25T06:55:47.129Z,75.66
2017-12-25T06:58:14.751Z,75.58
2017-12-25T07:00:42.227Z,75.64
2017-12-25T07:03:09.705Z,75.50
2017-12-25T07:05:37.210Z,75.60
2017-12-25T07:08:04.671Z,75.43
2017-12-25T07:10:32.120Z,75.52
2017-12-25T07:12:59.597Z,75.44
2017-12-25T07:15:27.047Z,75.39
2017-12-25T07:17:55.394Z,75.47
2017-12-25T07:20:22.968Z,75.26
2017-12-25T07:22:50.450Z,75.31
2017-12-25T07:25:17.956Z,75.10
2017-12-25T07:27:45.397Z,75.17
2017-12-25T07:30:12.863Z,75.07
2017-12-25T07:32:40.307Z,74.81
2017-12-25T07:35:07.774Z,74.80
2017-12-25T07:37:35.240Z,74.76
2017-12-25T07:40:02.692Z,74.63
2017-12-25T07:42:30.145Z,74.57
2017-12-25T07:44:57.584Z,74.41
2017-12-25T07:47:25.040Z,74.39
2017-12-25T07:49:52.483Z,74.00
2017-12-25T07:52:19.969Z,73.90
2017-12-25T07:54:47.411Z,73.87
2017-12-25T07:57:14.884Z,73.98
2017-12-25T07:59:42.341Z,73.85
2017-12-25T08:02:09.812Z,74.10
2017-12-25T08:04:37.255Z,74.10
2017-12-25T08:07:04.704Z,74.04
2017-12-25T08:09:32.167Z,73.62
2017-12-25T08:11:59.626Z,73.56
2017-12-25T08:14:27.093Z,73.46
2017-12-25T08:16:54.536Z,73.66
2017-12-25T08:19:22.010Z,73.56
2017-12-25T08:21:49.453Z,73.54
2017-12-25T08:24:16.893Z,73.56
2017-12-25T08:26:44.365Z,73.91
2017-12-25T08:29:11.883Z,73.58
2017-12-25T08:31:39.342Z,73.50
2017-12-25T08:34:06.781Z,72.91
2017-12-25T08:36:34.238Z,72.97
2017-12-25T08:39:01.758Z,73.35
2017-12-25T08:41:29.244Z,73.55
2017-12-25T08:43:56.694Z,73.11
2017-12-25T08:46:24.145Z,73.05
2017-12-25T08:48:51.601Z,73.06
2017-12-25T08:51:19.111Z,73.08
2017-12-25T08:53:46.567Z,73.51
2017-12-25T08:56:14.014Z,73.39
2017-12-25T08:58:41.521Z,73.04
2017-12-25T09:01:08.974Z,73.23
2017-12-25T09:03:36.430Z,73.00
2017-12-25T09:06:04.161Z,72.99
2017-12-25T09:08:31.715Z,73.07
2017-12-25T09:10:59.158Z,73.28
2017-12-25T09:13:26.607Z,72.91
2017-12-25T09:15:54.056Z,72.95
2017-12-25T09:18:21.488Z,72.90
2017-12-25T09:20:48.950Z,72.90
2017-12-25T09:23:16.397Z,72.93
2017-12-25T09:25:43.906Z,73.03
2017-12-25T09:28:11.369Z,73.00
2017-12-25T09:30:38.819Z,72.88
2017-12-25T09:33:06.488Z,73.16
2017-12-25T09:35:33.989Z,73.32
2017-12-25T09:38:01.468Z,73.07
2017-12-25T09:40:28.955Z,73.05
2017-12-25T09:42:56.394Z,73.03
2017-12-25T09:45:24.139Z,72.71
2017-12-25T09:47:51.632Z,73.07
2017-12-25T09:50:19.072Z,73.02
2017-12-25T09:52:46.532Z,72.87
2017-12-25T09:55:13.973Z,72.80
2017-12-25T09:57:41.545Z,72.58
2017-12-25T10:00:09.006Z,72.81
2017-12-25T10:02:36.704Z,72.76
2017-12-25T10:05:04.904Z,72.90
2017-12-25T10:07:32.452Z,72.71
2017-12-25T10:09:59.897Z,72.73
2017-12-25T10:12:27.343Z,72.86
2017-12-25T10:14:54.828Z,72.70
2017-12-25T10:17:22.277Z,72.19
2017-12-25T10:19:49.796Z,72.25
2017-12-25T10:22:17.233Z,72.41
2017-12-25T10:24:44.923Z,72.86
2017-12-25T10:27:12.425Z,72.59
2017-12-25T10:29:39.888Z,72.67
2017-12-25T10:32:07.459Z,72.39
2017-12-25T10:34:35.235Z,72.64
2017-12-25T10:37:02.685Z,72.58
2017-12-25T10:39:30.443Z,72.90
2017-12-25T10:41:57.921Z,73.53
2017-12-25T10:44:25.369Z,74.12
2017-12-25T10:46:52.852Z,74.05
2017-12-25T10:49:20.301Z,74.12
2017-12-25T10:51:47.764Z,73.87
2017-12-25T10:54:15.214Z,73.77
2017-12-25T10:56:42.685Z,73.25
2017-12-25T10:59:10.132Z,73.02
2017-12-25T11:01:37.606Z,73.38
2017-12-25T11:04:05.092Z,72.91
2017-12-25T11:06:32.544Z,72.92
2017-12-25T11:09:00.008Z,72.83
2017-12-25T11:11:27.461Z,72.35
2017-12-25T11:13:54.919Z,72.10
2017-12-25T11:16:22.364Z,71.95
2017-12-25T11:18:49.840Z,71.68
2017-12-25T11:21:17.341Z,72.14
2017-12-25T11:23:44.863Z,72.20
2017-12-25T11:26:12.433Z,71.80
2017-12-25T11:28:39.889Z,71.93
2017-12-25T11:31:07.340Z,72.13
2017-12-25T11:33:34.864Z,71.73
2017-12-25T11:36:02.315Z,71.03
2017-12-25T11:38:29.789Z,71.27
2017-12-25T11:40:57.393Z,71.24
2017-12-25T11:43:24.841Z,71.38
2017-12-25T11:45:52.401Z,71.18
2017-12-25T11:48:19.889Z,70.85
2017-12-25T11:50:47.366Z,70.77
2017-12-25T11:53:14.829Z,70.73
2017-12-25T11:55:42.274Z,70.92
2017-12-25T11:58:09.756Z,71.10
2017-12-25T12:00:37.200Z,71.43
2017-12-25T12:03:04.670Z,71.37
2017-12-25T12:05:32.134Z,71.13
2017-12-25T12:07:59.631Z,71.23
2017-12-25T12:10:27.092Z,71.33
2017-12-25T12:12:54.563Z,71.48
2017-12-25T12:15:22.000Z,71.30
2017-12-25T12:17:49.501Z,71.41
2017-12-25T12:20:19.125Z,71.36
2017-12-25T12:22:46.608Z,71.46
2017-12-25T12:25:14.085Z,71.27
2017-12-25T12:27:41.548Z,69.83
2017-12-25T12:30:09.002Z,69.39
2017-12-25T12:32:36.492Z,70.03
2017-12-25T12:35:04.756Z,69.33
2017-12-25T12:37:32.250Z,68.44
2017-12-25T12:39:59.744Z,68.57
2017-12-25T12:42:27.188Z,68.84
2017-12-25T12:44:54.646Z,68.56
2017-12-25T12:47:22.105Z,69.15
2017-12-25T12:49:49.543Z,68.81
2017-12-25T12:52:17.007Z,69.52
2017-12-25T12:54:44.547Z,67.18
2017-12-25T12:57:12.017Z,65.74
2017-12-25T12:59:39.465Z,65.61
2017-12-25T13:02:06.957Z,64.96
2017-12-25T13:04:34.417Z,64.71
2017-12-25T13:07:01.863Z,62.84
2017-12-25T13:09:29.323Z,61.54
2017-12-25T13:11:56.786Z,60.45
2017-12-25T13:14:24.372Z,58.53
2017-12-25T13:16:51.844Z,59.25
2017-12-25T13:19:19.307Z,58.58
2017-12-25T13:21:46.762Z,59.10
2017-12-25T13:24:14.256Z,59.18
2017-12-25T13:26:41.712Z,58.25
2017-12-25T13:29:09.169Z,58.82
2017-12-25T13:31:36.733Z,58.96
2017-12-25T13:34:05.018Z,59.54
2017-12-25T13:36:32.483Z,60.35
2017-12-25T13:38:59.953Z,60.07
2017-12-25T13:41:27.423Z,61.29
2017-12-25T13:43:54.895Z,61.06
2017-12-25T13:46:22.351Z,60.86
2017-12-25T13:48:49.801Z,61.08
2017-12-25T13:51:17.357Z,59.96
2017-12-25T13:53:44.815Z,61.62
2017-12-25T13:56:12.277Z,60.66
2017-12-25T13:58:39.779Z,61.67
2017-12-25T14:01:07.247Z,60.96
2017-12-25T14:03:34.713Z,59.49
2017-12-25T14:06:02.170Z,59.31
2017-12-25T14:08:29.639Z,59.67
2017-12-25T14:10:57.099Z,60.08
2017-12-25T14:13:24.801Z,62.56
2017-12-25T14:15:52.252Z,62.45
2017-12-25T14:18:19.695Z,62.79
2017-12-25T14:20:47.158Z,62.72
2017-12-25T14:23:14.616Z,62.34
2017-12-25T14:25:42.084Z,63.64
2017-12-25T14:28:09.572Z,64.09
2017-12-25T14:30:37.053Z,64.56
2017-12-25T14:33:04.497Z,65.47
2017-12-25T14:35:32.049Z,66.06
2017-12-25T14:37:59.499Z,66.27
2017-12-25T14:40:27.016Z,65.29
2017-12-25T14:42:54.446Z,66.12
2017-12-25T14:45:21.960Z,67.56
2017-12-25T14:47:49.450Z,67.97
2017-12-25T14:50:16.986Z,68.04
2017-12-25T14:52:44.545Z,69.00
2017-12-25T14:55:12.014Z,69.63
2017-12-25T14:57:39.483Z,71.34
2017-12-25T15:00:06.956Z,72.53
2017-12-25T15:02:34.431Z,72.42
2017-12-25T15:05:01.960Z,73.30
2017-12-25T15:07:29.523Z,73.93
2017-12-25T15:09:56.980Z,74.72
2017-12-25T15:12:24.448Z,74.33
2017-12-25T15:14:51.946Z,75.14
2017-12-25T15:17:19.392Z,75.68
2017-12-25T15:19:46.845Z,76.13
2017-12-25T15:22:14.354Z,76.17
2017-12-25T15:24:41.872Z,77.14
2017-12-25T15:27:09.320Z,77.45
2017-12-25T15:29:36.861Z,77.66
2017-12-25T15:32:04.303Z,78.54
2017-12-25T15:34:31.807Z,79.54
2017-12-25T15:36:59.277Z,79.61
2017-12-25T15:39:26.727Z,79.75
2017-12-25T15:41:54.179Z,80.50
2017-12-25T15:44:21.707Z,81.12
2017-12-25T15:46:49.171Z,81.25
2017-12-25T15:49:16.634Z,81.53
2017-12-25T15:51:44.216Z,82.04
2017-12-25T15:54:11.725Z,82.59
2017-12-25T15:56:39.175Z,82.50
2017-12-25T15:59:06.639Z,83.25
2017-12-25T16:01:34.078Z,82.74
2017-12-25T16:04:01.592Z,83.08
2017-12-25T16:06:29.032Z,83.57
2017-12-25T16:08:56.486Z,83.70
2017-12-25T16:11:23.971Z,84.04
2017-12-25T16:13:51.422Z,84.41
2017-12-25T16:16:18.912Z,84.83
2017-12-25T16:18:46.693Z,85.04
2017-12-25T16:21:14.156Z,84.86
2017-12-25T16:23:41.618Z,84.84
2017-12-25T16:26:09.109Z,85.44
2017-12-25T16:28:36.575Z,85.13
2017-12-25T16:31:04.063Z,85.21
2017-12-25T16:33:31.517Z,85.61
2017-12-25T16:35:59.102Z,85.89
2017-12-25T16:38:26.602Z,85.97
2017-12-25T16:40:54.154Z,86.00
2017-12-25T16:43:21.619Z,86.28
2017-12-25T16:45:49.078Z,86.04
2017-12-25T16:48:16.546Z,86.29
2017-12-25T16:50:44.032Z,86.48
2017-12-25T16:53:11.477Z,86.77
2017-12-25T16:55:38.952Z,86.48
2017-12-25T16:58:06.432Z,86.28
2017-12-25T17:00:33.875Z,86.53
2017-12-25T17:03:01.402Z,86.31
2017-12-25T17:05:28.936Z,86.28
2017-12-25T17:07:56.410Z,86.25
2017-12-25T17:10:23.917Z,86.38
2017-12-25T17:12:51.376Z,86.39
2017-12-25T17:15:18.884Z,87.25
2017-12-25T17:17:46.391Z,86.80
2017-12-25T17:20:13.868Z,86.64
2017-12-25T17:22:41.359Z,86.76
2017-12-25T17:25:08.950Z,86.79
2017-12-25T17:27:36.522Z,86.96
2017-12-25T17:30:04.013Z,87.23
2017-12-25T17:32:31.472Z,87.27
2017-12-25T17:34:59.100Z,87.28
2017-12-25T17:37:26.620Z,87.37
2017-12-25T17:39:54.086Z,87.46
2017-12-25T17:42:21.559Z,87.12
2017-12-25T17:44:49.038Z,87.32
2017-12-25T17:47:16.509Z,87.44
2017-12-25T17:49:43.989Z,87.52
2017-12-25T17:52:11.524Z,87.56
2017-12-25T17:54:38.998Z,87.82
2017-12-25T17:57:06.637Z,87.90
2017-12-25T17:59:34.105Z,88.14
2017-12-25T18:02:01.561Z,88.20
2017-12-25T18:04:29.066Z,88.39
2017-12-25T18:06:56.569Z,88.33
2017-12-25T18:09:24.014Z,88.05
2017-12-25T18:11:51.481Z,88.43
2017-12-25T18:14:18.933Z,88.41
2017-12-25T18:16:46.412Z,88.29
2017-12-25T18:19:13.911Z,88.43
2017-12-25T18:21:41.361Z,88.51
2017-12-25T18:24:08.826Z,88.85
2017-12-25T18:26:36.340Z,89.27
2017-12-25T18:29:03.793Z,89.04
2017-12-25T18:31:31.242Z,89.34
2017-12-25T18:33:58.773Z,89.41
2017-12-25T18:36:26.332Z,89.78
2017-12-25T18:38:53.793Z,89.95
2017-12-25T18:41:21.266Z,89.70
2017-12-25T18:43:48.795Z,89.59
2017-12-25T18:46:16.316Z,88.70
2017-12-25T18:48:43.776Z,88.72
2017-12-25T18:51:11.240Z,89.13
2017-12-25T18:53:38.722Z,88.73
2017-12-25T18:56:06.232Z,89.77
2017-12-25T18:58:33.726Z,89.53
2017-12-25T19:01:01.182Z,89.50
2017-12-25T19:03:28.657Z,89.14
2017-12-25T19:05:56.131Z,88.96
2017-12-25T19:08:23.597Z,89.13
2017-12-25T19:10:51.128Z,88.42
2017-12-25T19:13:18.590Z,90.80
2017-12-25T19:15:46.047Z,92.12
2017-12-25T19:18:16.207Z,88.32
2017-12-25T19:20:45.167Z,87.53
2017-12-25T19:23:12.646Z,89.13
2017-12-25T19:25:40.165Z,86.11
2017-12-25T19:28:07.729Z,86.94
2017-12-25T19:30:35.329Z,84.81
2017-12-25T19:33:02.852Z,84.29
2017-12-25T19:35:30.356Z,84.19
2017-12-25T19:37:57.860Z,81.85
2017-12-25T19:40:25.308Z,82.71
2017-12-25T19:42:52.756Z,82.00
2017-12-25T19:45:20.358Z,83.80
2017-12-25T19:47:47.807Z,82.18
2017-12-25T19:50:15.296Z,83.06
2017-12-25T19:52:43.088Z,84.81
2017-12-25T19:55:10.619Z,83.93
2017-12-25T19:57:38.081Z,84.34
2017-12-25T20:00:06.441Z,85.30
2017-12-25T20:02:33.953Z,86.67
2017-12-25T20:05:01.455Z,86.88
2017-12-25T20:07:28.972Z,87.14
2017-12-25T20:09:56.461Z,87.74
2017-12-25T20:12:23.954Z,89.28
2017-12-25T20:14:51.402Z,89.40
2017-12-25T20:17:18.946Z,89.71
2017-12-25T20:19:46.442Z,89.19
2017-12-25T20:22:13.896Z,89.26
2017-12-25T20:24:41.873Z,89.51
2017-12-25T20:27:09.417Z,89.66
2017-12-25T20:29:36.937Z,89.61
2017-12-25T20:32:04.390Z,89.85
2017-12-25T20:34:31.955Z,90.07
2017-12-25T20:36:59.713Z,90.21
2017-12-25T20:39:27.298Z,90.19
2017-12-25T20:41:54.992Z,90.83
2017-12-25T20:44:22.557Z,90.79
2017-12-25T20:46:50.127Z,90.48
2017-12-25T20:49:17.631Z,90.87
2017-12-25T20:51:45.479Z,90.42
2017-12-25T20:54:13.004Z,89.82
2017-12-25T20:56:40.513Z,90.23
2017-12-25T20:59:08.043Z,90.34
2017-12-25T21:01:35.501Z,90.58
2017-12-25T21:04:03.006Z,90.45
2017-12-25T21:06:30.481Z,90.59
2017-12-25T21:08:57.992Z,91.00
2017-12-25T21:11:25.529Z,90.57
2017-12-25T21:13:52.987Z,90.58
2017-12-25T21:16:20.500Z,90.74
2017-12-25T21:18:48.422Z,90.82
2017-12-25T21:21:16.060Z,90.85
2017-12-25T21:23:43.627Z,91.09
2017-12-25T21:26:11.159Z,91.09
2017-12-25T21:28:38.651Z,91.44
2017-12-25T21:31:06.169Z,91.36
2017-12-25T21:33:33.682Z,91.17
2017-12-25T21:36:01.207Z,91.39
2017-12-25T21:38:28.732Z,91.49
2017-12-25T21:40:56.245Z,91.67
2017-12-25T21:43:23.851Z,91.52
2017-12-25T21:45:51.495Z,91.55
2017-12-25T21:48:19.000Z,91.75
2017-12-25T21:50:46.508Z,91.86
2017-12-25T21:53:14.019Z,91.80
2017-12-25T21:55:41.547Z,91.63
2017-12-25T21:58:09.083Z,91.97
2017-12-25T22:00:36.593Z,91.85
2017-12-25T22:03:04.112Z,91.37
2017-12-25T22:05:31.662Z,91.35
2017-12-25T22:07:59.168Z,91.39
2017-12-25T22:10:26.615Z,91.96
2017-12-25T22:12:54.140Z,92.13
2017-12-25T22:15:21.660Z,92.01
2017-12-25T22:17:49.175Z,91.72
2017-12-25T22:20:16.674Z,91.58
2017-12-25T22:22:44.290Z,91.71
2017-12-25T22:25:11.811Z,91.77
2017-12-25T22:27:39.339Z,91.66
2017-12-25T22:30:06.858Z,91.77
2017-12-25T22:32:34.464Z,91.74
2017-12-25T22:35:01.998Z,92.30
2017-12-25T22:37:29.534Z,92.92
2017-12-25T22:39:57.081Z,92.88
2017-12-25T22:42:24.584Z,92.26
2017-12-25T22:44:52.032Z,92.30
2017-12-25T22:47:19.496Z,92.40
2017-12-25T22:49:46.994Z,92.77
2017-12-25T22:52:14.555Z,92.48
2017-12-25T22:54:42.906Z,92.26
2017-12-25T22:57:10.445Z,92.22
2017-12-25T22:59:38.180Z,92.68
2017-12-25T23:02:05.687Z,92.17
2017-12-25T23:04:33.194Z,92.00
2017-12-25T23:07:00.673Z,91.50
2017-12-25T23:09:28.149Z,91.64
2017-12-25T23:11:55.630Z,91.56
2017-12-25T23:14:23.138Z,91.23
2017-12-25T23:16:50.587Z,90.81
2017-12-25T23:19:18.095Z,89.30
2017-12-25T23:21:45.640Z,90.57
2017-12-25T23:24:13.190Z,89.97
2017-12-25T23:26:40.700Z,88.89
2017-12-25T23:29:08.216Z,88.25
2017-12-25T23:31:35.717Z,87.80
2017-12-25T23:34:03.332Z,87.35
2017-12-25T23:36:30.838Z,87.23
2017-12-25T23:38:58.424Z,86.95
2017-12-25T23:41:25.929Z,86.41
2017-12-25T23:43:53.410Z,86.19
2017-12-25T23:46:20.940Z,85.73
2017-12-25T23:48:48.447Z,85.49
2017-12-25T23:51:15.957Z,85.01
2017-12-25T23:53:43.500Z,84.15
2017-12-25T23:56:10.995Z,83.36
2017-12-25T23:58:38.507Z,82.27
